sensor_id;sensor_type;location;lat;lon;timestamp;pressure;altitude;pressure_sealevel;temperature;humidity
71384;BME280;67558;52.166;5.004;2023-02-28T00:00:09;103308.84;;;4.23;60.87
71384;BME280;67558;52.166;5.004;2023-02-28T00:02:39;103297.13;;;4.26;61.25
71384;BME280;67558;52.166;5.004;2023-02-28T00:05:06;103300.75;;;4.33;61.42
71384;BME280;67558;52.166;5.004;2023-02-28T00:07:32;103305.06;;;4.34;61.16
71384;BME280;67558;52.166;5.004;2023-02-28T00:09:58;103293.63;;;4.34;61.13
71384;BME280;67558;52.166;5.004;2023-02-28T00:12:24;103295.31;;;4.43;61.30
71384;BME280;67558;52.166;5.004;2023-02-28T00:14:50;103296.81;;;4.45;61.00
71384;BME280;67558;52.166;5.004;2023-02-28T00:17:15;103292.34;;;4.46;61.20
71384;BME280;67558;52.166;5.004;2023-02-28T00:19:43;103299.13;;;4.48;61.23
71384;BME280;67558;52.166;5.004;2023-02-28T00:22:08;103312.91;;;4.52;61.07
71384;BME280;67558;52.166;5.004;2023-02-28T00:24:33;103304.44;;;4.48;61.39
71384;BME280;67558;52.166;5.004;2023-02-28T00:26:59;103309.09;;;4.55;61.19
71384;BME280;67558;52.166;5.004;2023-02-28T00:29:24;103300.13;;;4.56;61.16
71384;BME280;67558;52.166;5.004;2023-02-28T00:31:49;103301.66;;;4.58;61.08
71384;BME280;67558;52.166;5.004;2023-02-28T00:34:15;103294.50;;;4.59;61.15
71384;BME280;67558;52.166;5.004;2023-02-28T00:36:40;103301.16;;;4.63;61.38
71384;BME280;67558;52.166;5.004;2023-02-28T00:39:10;103295.34;;;4.59;61.25
71384;BME280;67558;52.166;5.004;2023-02-28T00:41:36;103296.50;;;4.65;61.53
71384;BME280;67558;52.166;5.004;2023-02-28T00:44:01;103295.00;;;4.62;61.44
71384;BME280;67558;52.166;5.004;2023-02-28T00:46:26;103299.47;;;4.70;62.03
71384;BME280;67558;52.166;5.004;2023-02-28T00:48:51;103301.47;;;4.68;61.45
71384;BME280;67558;52.166;5.004;2023-02-28T00:51:17;103292.53;;;4.69;61.61
71384;BME280;67558;52.166;5.004;2023-02-28T00:53:42;103296.19;;;4.76;61.34
71384;BME280;67558;52.166;5.004;2023-02-28T00:56:08;103292.03;;;4.74;61.37
71384;BME280;67558;52.166;5.004;2023-02-28T00:58:33;103304.44;;;4.81;61.42
71384;BME280;67558;52.166;5.004;2023-02-28T01:00:58;103300.16;;;4.80;61.39
71384;BME280;67558;52.166;5.004;2023-02-28T01:03:24;103296.34;;;4.83;61.52
71384;BME280;67558;52.166;5.004;2023-02-28T01:05:49;103285.88;;;4.81;61.13
71384;BME280;67558;52.166;5.004;2023-02-28T01:08:15;103301.50;;;4.84;61.32
71384;BME280;67558;52.166;5.004;2023-02-28T01:10:41;103274.63;;;4.71;61.57
71384;BME280;67558;52.166;5.004;2023-02-28T01:13:06;103286.91;;;4.80;61.46
71384;BME280;67558;52.166;5.004;2023-02-28T01:15:32;103297.97;;;4.84;61.47
71384;BME280;67558;52.166;5.004;2023-02-28T01:17:58;103275.28;;;4.73;61.47
71384;BME280;67558;52.166;5.004;2023-02-28T01:20:24;103299.81;;;4.83;61.65
71384;BME280;67558;52.166;5.004;2023-02-28T01:22:49;103300.81;;;4.82;61.79
71384;BME280;67558;52.166;5.004;2023-02-28T01:25:15;103302.00;;;4.80;61.70
71384;BME280;67558;52.166;5.004;2023-02-28T01:27:40;103292.19;;;4.80;61.65
71384;BME280;67558;52.166;5.004;2023-02-28T01:30:07;103288.03;;;4.86;61.54
71384;BME280;67558;52.166;5.004;2023-02-28T01:32:33;103294.88;;;4.88;61.69
71384;BME280;67558;52.166;5.004;2023-02-28T01:34:58;103282.59;;;4.87;61.85
71384;BME280;67558;52.166;5.004;2023-02-28T01:37:23;103297.66;;;4.87;62.19
71384;BME280;67558;52.166;5.004;2023-02-28T01:39:49;103295.03;;;4.87;61.71
71384;BME280;67558;52.166;5.004;2023-02-28T01:42:14;103290.38;;;4.89;61.71
71384;BME280;67558;52.166;5.004;2023-02-28T01:45:02;103288.53;;;4.89;61.94
71384;BME280;67558;52.166;5.004;2023-02-28T01:47:40;103285.75;;;4.91;62.05
71384;BME280;67558;52.166;5.004;2023-02-28T01:50:11;103278.75;;;4.90;61.92
71384;BME280;67558;52.166;5.004;2023-02-28T01:52:38;103273.28;;;4.83;62.04
71384;BME280;67558;52.166;5.004;2023-02-28T01:55:05;103273.66;;;4.88;61.98
71384;BME280;67558;52.166;5.004;2023-02-28T01:57:36;103274.31;;;4.90;62.15
71384;BME280;67558;52.166;5.004;2023-02-28T02:00:10;103281.56;;;4.97;61.79
71384;BME280;67558;52.166;5.004;2023-02-28T02:02:38;103277.13;;;4.97;61.93
71384;BME280;67558;52.166;5.004;2023-02-28T02:05:08;103281.25;;;5.00;62.20
71384;BME280;67558;52.166;5.004;2023-02-28T02:07:37;103278.59;;;5.00;62.11
71384;BME280;67558;52.166;5.004;2023-02-28T02:12:56;103271.97;;;5.04;61.88
71384;BME280;67558;52.166;5.004;2023-02-28T02:18:34;103264.81;;;5.04;62.38
71384;BME280;67558;52.166;5.004;2023-02-28T02:29:20;103262.84;;;5.06;62.21
71384;BME280;67558;52.166;5.004;2023-02-28T02:32:01;103261.16;;;5.05;62.27
71384;BME280;67558;52.166;5.004;2023-02-28T02:37:54;103262.84;;;5.06;62.92
71384;BME280;67558;52.166;5.004;2023-02-28T02:43:22;103257.19;;;5.09;62.24
71384;BME280;67558;52.166;5.004;2023-02-28T02:46:01;103256.19;;;5.10;62.40
71384;BME280;67558;52.166;5.004;2023-02-28T02:48:31;103265.66;;;5.13;62.16
71384;BME280;67558;52.166;5.004;2023-02-28T02:51:01;103260.00;;;5.16;62.17
71384;BME280;67558;52.166;5.004;2023-02-28T02:53:35;103273.91;;;5.18;62.32
71384;BME280;67558;52.166;5.004;2023-02-28T02:56:03;103250.38;;;5.15;62.32
71384;BME280;67558;52.166;5.004;2023-02-28T02:58:35;103258.66;;;5.20;62.44
71384;BME280;67558;52.166;5.004;2023-02-28T03:01:08;103256.03;;;5.12;62.50
71384;BME280;67558;52.166;5.004;2023-02-28T03:03:35;103259.69;;;5.11;62.75
71384;BME280;67558;52.166;5.004;2023-02-28T03:06:01;103259.31;;;5.14;62.85
71384;BME280;67558;52.166;5.004;2023-02-28T03:08:28;103261.81;;;5.24;62.35
71384;BME280;67558;52.166;5.004;2023-02-28T03:10:59;103254.34;;;5.19;62.21
71384;BME280;67558;52.166;5.004;2023-02-28T03:13:42;103270.28;;;5.27;62.38
71384;BME280;67558;52.166;5.004;2023-02-28T03:21:45;103265.34;;;5.08;62.93
71384;BME280;67558;52.166;5.004;2023-02-28T03:24:19;103266.81;;;5.10;62.90
71384;BME280;67558;52.166;5.004;2023-02-28T03:26:56;103263.34;;;5.10;62.89
71384;BME280;67558;52.166;5.004;2023-02-28T03:29:30;103259.31;;;5.14;63.20
71384;BME280;67558;52.166;5.004;2023-02-28T03:32:02;103252.88;;;5.08;63.09
71384;BME280;67558;52.166;5.004;2023-02-28T03:34:30;103260.00;;;5.16;63.61
71384;BME280;67558;52.166;5.004;2023-02-28T03:37:03;103267.94;;;5.16;63.06
71384;BME280;67558;52.166;5.004;2023-02-28T03:39:35;103263.31;;;5.18;63.04
71384;BME280;67558;52.166;5.004;2023-02-28T03:42:08;103257.16;;;5.26;62.95
71384;BME280;67558;52.166;5.004;2023-02-28T03:44:39;103263.13;;;5.20;62.93
71384;BME280;67558;52.166;5.004;2023-02-28T03:47:12;103264.16;;;5.19;63.05
71384;BME280;67558;52.166;5.004;2023-02-28T03:52:34;103248.25;;;5.10;63.73
71384;BME280;67558;52.166;5.004;2023-02-28T03:55:04;103268.28;;;5.21;63.07
71384;BME280;67558;52.166;5.004;2023-02-28T03:58:05;103270.13;;;5.21;63.34
71384;BME280;67558;52.166;5.004;2023-02-28T04:00:37;103270.13;;;5.21;63.34
71384;BME280;67558;52.166;5.004;2023-02-28T04:03:04;103277.06;;;5.22;63.35
71384;BME280;67558;52.166;5.004;2023-02-28T04:05:30;103264.16;;;5.19;63.23
71384;BME280;67558;52.166;5.004;2023-02-28T04:08:07;103272.44;;;5.16;63.28
71384;BME280;67558;52.166;5.004;2023-02-28T04:10:33;103262.84;;;5.15;63.45
71384;BME280;67558;52.166;5.004;2023-02-28T04:12:58;103276.75;;;5.17;63.49
71384;BME280;67558;52.166;5.004;2023-02-28T04:15:23;103277.91;;;5.14;63.37
71384;BME280;67558;52.166;5.004;2023-02-28T04:17:50;103281.22;;;5.16;63.32
71384;BME280;67558;52.166;5.004;2023-02-28T04:20:15;103282.22;;;5.15;63.51
71384;BME280;67558;52.166;5.004;2023-02-28T04:22:41;103279.41;;;5.08;63.31
71384;BME280;67558;52.166;5.004;2023-02-28T04:25:06;103277.09;;;5.05;63.81
71384;BME280;67558;52.166;5.004;2023-02-28T04:27:32;103278.91;;;5.05;64.04
71384;BME280;67558;52.166;5.004;2023-02-28T04:29:57;103285.22;;;5.04;64.18
71384;BME280;67558;52.166;5.004;2023-02-28T04:32:23;103277.78;;;4.99;64.11
71384;BME280;67558;52.166;5.004;2023-02-28T04:34:48;103282.59;;;4.96;64.49
71384;BME280;67558;52.166;5.004;2023-02-28T04:37:13;103279.78;;;4.97;64.53
71384;BME280;67558;52.166;5.004;2023-02-28T04:39:40;103278.44;;;4.93;64.93
71384;BME280;67558;52.166;5.004;2023-02-28T04:42:05;103270.81;;;4.90;64.38
71384;BME280;67558;52.166;5.004;2023-02-28T04:44:31;103278.91;;;4.97;64.15
71384;BME280;67558;52.166;5.004;2023-02-28T04:46:56;103278.91;;;4.97;63.89
71384;BME280;67558;52.166;5.004;2023-02-28T04:49:22;103282.22;;;4.99;64.64
71384;BME280;67558;52.166;5.004;2023-02-28T04:51:47;103277.59;;;5.01;64.13
71384;BME280;67558;52.166;5.004;2023-02-28T04:54:15;103283.75;;;5.01;64.34
71384;BME280;67558;52.166;5.004;2023-02-28T04:56:41;103284.06;;;4.98;64.16
71384;BME280;67558;52.166;5.004;2023-02-28T04:59:06;103281.56;;;4.97;65.01
71384;BME280;67558;52.166;5.004;2023-02-28T05:01:33;103283.09;;;4.99;64.51
71384;BME280;67558;52.166;5.004;2023-02-28T05:04:01;103285.56;;;5.01;64.39
71384;BME280;67558;52.166;5.004;2023-02-28T05:06:29;103271.81;;;4.89;64.23
71384;BME280;67558;52.166;5.004;2023-02-28T05:08:55;103277.94;;;4.98;64.20
71384;BME280;67558;52.166;5.004;2023-02-28T05:11:30;103270.13;;;4.96;64.00
71384;BME280;67558;52.166;5.004;2023-02-28T05:14:04;103273.63;;;4.97;63.77
71384;BME280;67558;52.166;5.004;2023-02-28T05:16:30;103270.28;;;4.95;63.28
71384;BME280;67558;52.166;5.004;2023-02-28T05:18:56;103277.28;;;4.96;63.33
71384;BME280;67558;52.166;5.004;2023-02-28T05:21:35;103273.28;;;4.91;62.39
71384;BME280;67558;52.166;5.004;2023-02-28T05:24:04;103278.25;;;4.95;63.07
71384;BME280;67558;52.166;5.004;2023-02-28T05:26:31;103275.78;;;4.93;62.86
71384;BME280;67558;52.166;5.004;2023-02-28T05:28:59;103270.13;;;4.88;62.51
71384;BME280;67558;52.166;5.004;2023-02-28T05:31:24;103265.19;;;4.85;62.40
71384;BME280;67558;52.166;5.004;2023-02-28T05:33:50;103283.56;;;4.95;62.17
71384;BME280;67558;52.166;5.004;2023-02-28T05:36:16;103281.91;;;4.93;61.75
71384;BME280;67558;52.166;5.004;2023-02-28T05:38:41;103277.78;;;4.91;61.99
71384;BME280;67558;52.166;5.004;2023-02-28T05:41:08;103270.66;;;4.83;61.36
71384;BME280;67558;52.166;5.004;2023-02-28T05:43:34;103281.59;;;4.88;61.15
71384;BME280;67558;52.166;5.004;2023-02-28T05:46:05;103278.28;;;4.86;61.05
71384;BME280;67558;52.166;5.004;2023-02-28T05:48:32;103281.91;;;4.85;60.59
71384;BME280;67558;52.166;5.004;2023-02-28T05:50:57;103277.94;;;4.89;60.23
71384;BME280;67558;52.166;5.004;2023-02-28T05:53:23;103288.56;;;4.98;60.10
71384;BME280;67558;52.166;5.004;2023-02-28T05:55:48;103287.53;;;4.99;59.70
71384;BME280;67558;52.166;5.004;2023-02-28T05:58:13;103291.03;;;4.99;59.68
71384;BME280;67558;52.166;5.004;2023-02-28T06:00:39;103277.28;;;4.79;59.80
71384;BME280;67558;52.166;5.004;2023-02-28T06:03:04;103276.59;;;4.77;59.73
71384;BME280;67558;52.166;5.004;2023-02-28T06:05:29;103281.75;;;4.79;59.35
71384;BME280;67558;52.166;5.004;2023-02-28T06:07:55;103266.03;;;4.69;59.65
71384;BME280;67558;52.166;5.004;2023-02-28T06:10:20;103286.91;;;4.72;59.65
71384;BME280;67558;52.166;5.004;2023-02-28T06:12:46;103289.38;;;4.74;59.60
71384;BME280;67558;52.166;5.004;2023-02-28T06:15:15;103293.53;;;4.68;59.69
71384;BME280;67558;52.166;5.004;2023-02-28T06:17:41;103288.56;;;4.65;59.95
71384;BME280;67558;52.166;5.004;2023-02-28T06:20:08;103296.50;;;4.65;60.06
71384;BME280;67558;52.166;5.004;2023-02-28T06:22:35;103295.00;;;4.62;60.18
71384;BME280;67558;52.166;5.004;2023-02-28T06:25:01;103285.22;;;4.55;60.70
71384;BME280;67558;52.166;5.004;2023-02-28T06:27:26;103295.84;;;4.55;60.76
71384;BME280;67558;52.166;5.004;2023-02-28T06:29:54;103292.81;;;4.49;61.30
71384;BME280;67558;52.166;5.004;2023-02-28T06:32:20;103301.78;;;4.48;61.46
71384;BME280;67558;52.166;5.004;2023-02-28T06:34:46;103312.53;;;4.47;61.80
71384;BME280;67558;52.166;5.004;2023-02-28T06:37:11;103306.09;;;4.41;62.40
71384;BME280;67558;52.166;5.004;2023-02-28T06:39:36;103307.22;;;4.39;62.33
71384;BME280;67558;52.166;5.004;2023-02-28T06:42:02;103306.72;;;4.35;62.64
71384;BME280;67558;52.166;5.004;2023-02-28T06:44:28;103305.91;;;4.35;63.03
71384;BME280;67558;52.166;5.004;2023-02-28T06:47:00;103300.09;;;4.31;63.47
71384;BME280;67558;52.166;5.004;2023-02-28T06:49:27;103304.06;;;4.27;63.34
71384;BME280;67558;52.166;5.004;2023-02-28T06:51:53;103309.19;;;4.28;63.31
71384;BME280;67558;52.166;5.004;2023-02-28T06:54:19;103311.66;;;4.30;63.43
71384;BME280;67558;52.166;5.004;2023-02-28T06:56:44;103315.84;;;4.33;63.60
71384;BME280;67558;52.166;5.004;2023-02-28T06:59:09;103315.31;;;4.29;63.88
71384;BME280;67558;52.166;5.004;2023-02-28T07:01:35;103326.06;;;4.27;64.07
71384;BME280;67558;52.166;5.004;2023-02-28T07:04:00;103323.59;;;4.26;63.94
71384;BME280;67558;52.166;5.004;2023-02-28T07:06:27;103319.44;;;4.23;64.51
71384;BME280;67558;52.166;5.004;2023-02-28T07:08:53;103337.50;;;4.20;64.29
71384;BME280;67558;52.166;5.004;2023-02-28T07:11:20;103330.38;;;4.20;64.58
71384;BME280;67558;52.166;5.004;2023-02-28T07:13:48;103326.22;;;4.18;64.68
71384;BME280;67558;52.166;5.004;2023-02-28T07:16:13;103325.56;;;4.16;65.10
71384;BME280;67558;52.166;5.004;2023-02-28T07:18:39;103316.94;;;4.14;64.49
71384;BME280;67558;52.166;5.004;2023-02-28T07:21:07;103313.28;;;4.15;64.87
71384;BME280;67558;52.166;5.004;2023-02-28T07:23:33;103333.03;;;4.20;64.54
71384;BME280;67558;52.166;5.004;2023-02-28T07:25:58;103309.00;;;4.14;64.67
71384;BME280;67558;52.166;5.004;2023-02-28T07:28:24;103327.56;;;4.22;64.71
71384;BME280;67558;52.166;5.004;2023-02-28T07:30:50;103322.94;;;4.24;64.89
71384;BME280;67558;52.166;5.004;2023-02-28T07:33:16;103314.66;;;4.27;64.48
71384;BME280;67558;52.166;5.004;2023-02-28T07:35:42;103314.66;;;4.27;64.81
71384;BME280;67558;52.166;5.004;2023-02-28T07:38:07;103312.69;;;4.29;65.10
71384;BME280;67558;52.166;5.004;2023-02-28T07:40:35;103324.91;;;4.30;65.09
71384;BME280;67558;52.166;5.004;2023-02-28T07:43:01;103324.09;;;4.29;65.12
71384;BME280;67558;52.166;5.004;2023-02-28T07:45:28;103312.69;;;4.29;64.91
71384;BME280;67558;52.166;5.004;2023-02-28T07:47:54;103323.59;;;4.34;65.47
71384;BME280;67558;52.166;5.004;2023-02-28T07:50:20;103315.16;;;4.39;65.45
71384;BME280;67558;52.166;5.004;2023-02-28T07:52:46;103319.50;;;4.40;65.62
71384;BME280;67558;52.166;5.004;2023-02-28T07:55:12;103326.94;;;4.44;65.39
71384;BME280;67558;52.166;5.004;2023-02-28T07:57:38;103301.09;;;4.38;65.38
71384;BME280;67558;52.166;5.004;2023-02-28T08:00:05;103314.22;;;4.48;65.82
71384;BME280;67558;52.166;5.004;2023-02-28T08:02:31;103321.66;;;4.53;65.74
71384;BME280;67558;52.166;5.004;2023-02-28T08:04:57;103320.50;;;4.55;65.62
71384;BME280;67558;52.166;5.004;2023-02-28T08:07:22;103327.50;;;4.56;65.99
71384;BME280;67558;52.166;5.004;2023-02-28T08:09:47;103323.00;;;4.57;65.89
71384;BME280;67558;52.166;5.004;2023-02-28T08:12:13;103326.97;;;4.53;65.96
71384;BME280;67558;52.166;5.004;2023-02-28T08:14:38;103317.16;;;4.45;66.00
71384;BME280;67558;52.166;5.004;2023-02-28T08:17:05;103325.97;;;4.54;66.06
71384;BME280;67558;52.166;5.004;2023-02-28T08:19:30;103331.78;;;4.57;65.99
71384;BME280;67558;52.166;5.004;2023-02-28T08:21:56;103335.25;;;4.58;66.04
71384;BME280;67558;52.166;5.004;2023-02-28T08:24:21;103330.97;;;4.57;66.34
71384;BME280;67558;52.166;5.004;2023-02-28T08:26:46;103336.09;;;4.58;66.04
71384;BME280;67558;52.166;5.004;2023-02-28T08:29:12;103336.94;;;4.59;66.30
71384;BME280;67558;52.166;5.004;2023-02-28T08:31:37;103338.56;;;4.60;66.33
71384;BME280;67558;52.166;5.004;2023-02-28T08:34:07;103336.59;;;4.62;66.20
71384;BME280;67558;52.166;5.004;2023-02-28T08:36:33;103342.56;;;4.64;66.39
71384;BME280;67558;52.166;5.004;2023-02-28T08:38:58;103335.94;;;4.68;66.33
71384;BME280;67558;52.166;5.004;2023-02-28T08:41:24;103329.16;;;4.65;66.17
71384;BME280;67558;52.166;5.004;2023-02-28T08:43:51;103325.50;;;4.75;66.45
71384;BME280;67558;52.166;5.004;2023-02-28T08:46:16;103321.22;;;4.74;66.57
71384;BME280;67558;52.166;5.004;2023-02-28T08:48:41;103337.31;;;4.88;66.39
71384;BME280;67558;52.166;5.004;2023-02-28T08:51:09;103341.59;;;5.14;65.71
71384;BME280;67558;52.166;5.004;2023-02-28T08:53:36;103341.91;;;5.03;66.04
71384;BME280;67558;52.166;5.004;2023-02-28T08:56:06;103338.94;;;4.98;66.98
71384;BME280;67558;52.166;5.004;2023-02-28T08:58:32;103342.44;;;5.06;66.66
71384;BME280;67558;52.166;5.004;2023-02-28T09:01:00;103340.59;;;5.15;66.20
71384;BME280;67558;52.166;5.004;2023-02-28T09:03:27;103336.28;;;5.22;66.17
71384;BME280;67558;52.166;5.004;2023-02-28T09:05:54;103333.63;;;5.30;66.07
71384;BME280;67558;52.166;5.004;2023-02-28T09:08:20;103335.75;;;5.35;66.21
71384;BME280;67558;52.166;5.004;2023-02-28T09:10:46;103336.41;;;5.45;65.85
71384;BME280;67558;52.166;5.004;2023-02-28T09:13:11;103337.47;;;5.92;63.84
71384;BME280;67558;52.166;5.004;2023-02-28T09:15:37;103337.97;;;5.87;63.71
71384;BME280;67558;52.166;5.004;2023-02-28T09:18:03;103339.34;;;5.67;63.52
71384;BME280;67558;52.166;5.004;2023-02-28T09:20:28;103348.81;;;5.69;63.44
71384;BME280;67558;52.166;5.004;2023-02-28T09:22:54;103338.84;;;5.63;63.99
71384;BME280;67558;52.166;5.004;2023-02-28T09:25:19;103345.84;;;5.64;63.77
71384;BME280;67558;52.166;5.004;2023-02-28T09:27:44;103345.97;;;5.71;63.43
71384;BME280;67558;52.166;5.004;2023-02-28T09:30:12;103352.13;;;5.71;63.01
71384;BME280;67558;52.166;5.004;2023-02-28T09:32:37;103352.94;;;5.72;62.48
71384;BME280;67558;52.166;5.004;2023-02-28T09:35:03;103351.00;;;5.66;62.73
71384;BME280;67558;52.166;5.004;2023-02-28T09:37:29;103342.38;;;5.64;63.11
71384;BME280;67558;52.166;5.004;2023-02-28T09:39:56;103342.16;;;5.65;63.12
71384;BME280;67558;52.166;5.004;2023-02-28T09:42:26;103360.09;;;5.63;63.12
71384;BME280;67558;52.166;5.004;2023-02-28T09:44:54;103354.47;;;5.66;63.51
71384;BME280;67558;52.166;5.004;2023-02-28T09:47:27;103349.13;;;5.74;63.25
71384;BME280;67558;52.166;5.004;2023-02-28T09:49:58;103352.25;;;5.78;62.61
71384;BME280;67558;52.166;5.004;2023-02-28T09:52:30;103363.88;;;5.85;62.68
71384;BME280;67558;52.166;5.004;2023-02-28T09:57:51;103362.00;;;6.02;61.62
71384;BME280;67558;52.166;5.004;2023-02-28T10:05:36;103354.22;;;6.32;59.01
71384;BME280;67558;52.166;5.004;2023-02-28T10:08:25;103358.19;;;6.36;58.18
71384;BME280;67558;52.166;5.004;2023-02-28T10:10:57;103358.53;;;6.41;57.59
71384;BME280;67558;52.166;5.004;2023-02-28T10:13:27;103356.00;;;6.48;56.38
71384;BME280;67558;52.166;5.004;2023-02-28T10:16:18;103339.13;;;6.55;55.42
71384;BME280;67558;52.166;5.004;2023-02-28T10:18:51;103345.19;;;6.72;56.00
71384;BME280;67558;52.166;5.004;2023-02-28T10:21:26;103341.75;;;6.87;55.81
71384;BME280;67558;52.166;5.004;2023-02-28T10:23:59;103341.59;;;7.03;54.68
71384;BME280;67558;52.166;5.004;2023-02-28T10:26:28;103335.47;;;7.03;52.22
71384;BME280;67558;52.166;5.004;2023-02-28T10:28:55;103310.41;;;6.97;51.77
71384;BME280;67558;52.166;5.004;2023-02-28T10:31:21;103332.66;;;7.19;50.99
71384;BME280;67558;52.166;5.004;2023-02-28T10:33:47;103333.13;;;7.23;50.21
71384;BME280;67558;52.166;5.004;2023-02-28T10:36:18;103331.56;;;7.28;46.83
71384;BME280;67558;52.166;5.004;2023-02-28T10:38:45;103326.00;;;7.38;48.78
71384;BME280;67558;52.166;5.004;2023-02-28T10:41:29;103324.00;;;7.40;48.20
71384;BME280;67558;52.166;5.004;2023-02-28T10:44:19;103322.25;;;7.47;46.63
71384;BME280;67558;52.166;5.004;2023-02-28T10:46:45;103325.47;;;7.57;48.04
71384;BME280;67558;52.166;5.004;2023-02-28T10:49:25;103325.91;;;7.61;45.01
71384;BME280;67558;52.166;5.004;2023-02-28T10:51:59;103325.09;;;7.61;43.45
71384;BME280;67558;52.166;5.004;2023-02-28T10:54:33;103316.75;;;7.64;44.73
71384;BME280;67558;52.166;5.004;2023-02-28T10:59:44;103325.66;;;7.71;44.35
71384;BME280;67558;52.166;5.004;2023-02-28T11:02:29;103309.00;;;7.69;41.43
71384;BME280;67558;52.166;5.004;2023-02-28T11:04:55;103305.78;;;7.73;43.77
71384;BME280;67558;52.166;5.004;2023-02-28T11:07:22;103306.69;;;7.80;43.68
71384;BME280;67558;52.166;5.004;2023-02-28T11:09:52;103308.53;;;7.80;42.73
71384;BME280;67558;52.166;5.004;2023-02-28T11:12:40;103282.63;;;7.59;42.53
71384;BME280;67558;52.166;5.004;2023-02-28T11:15:28;103300.47;;;7.73;42.45
71384;BME280;67558;52.166;5.004;2023-02-28T11:20:25;103283.84;;;7.71;41.66
71384;BME280;67558;52.166;5.004;2023-02-28T11:22:52;103289.00;;;7.73;40.70
71384;BME280;67558;52.166;5.004;2023-02-28T11:25:25;103283.00;;;7.71;40.69
71384;BME280;67558;52.166;5.004;2023-02-28T11:27:57;103280.25;;;7.64;40.48
71384;BME280;67558;52.166;5.004;2023-02-28T11:30:36;103278.97;;;7.60;40.84
71384;BME280;67558;52.166;5.004;2023-02-28T11:33:22;103278.06;;;7.53;40.39
71384;BME280;67558;52.166;5.004;2023-02-28T11:35:49;103274.75;;;7.51;40.22
71384;BME280;67558;52.166;5.004;2023-02-28T11:38:15;103276.59;;;7.50;39.54
71384;BME280;67558;52.166;5.004;2023-02-28T11:43:30;103281.56;;;7.38;39.40
71384;BME280;67558;52.166;5.004;2023-02-28T11:46:10;103272.44;;;7.33;39.53
71384;BME280;67558;52.166;5.004;2023-02-28T11:48:54;103268.31;;;7.30;39.76
71384;BME280;67558;52.166;5.004;2023-02-28T11:51:34;103259.50;;;7.30;39.92
71384;BME280;67558;52.166;5.004;2023-02-28T11:54:16;103267.94;;;7.33;40.05
71384;BME280;67558;52.166;5.004;2023-02-28T11:56:55;103266.03;;;7.27;39.52
71384;BME280;67558;52.166;5.004;2023-02-28T12:02:06;103258.88;;;7.28;39.20
71384;BME280;67558;52.166;5.004;2023-02-28T12:17:55;103247.09;;;7.22;37.86
71384;BME280;67558;52.166;5.004;2023-02-28T12:28:34;103256.66;;;7.16;37.48
71384;BME280;67558;52.166;5.004;2023-02-28T12:31:11;103243.25;;;7.10;37.56
71384;BME280;67558;52.166;5.004;2023-02-28T12:33:43;103242.50;;;7.16;37.43
71384;BME280;67558;52.166;5.004;2023-02-28T12:36:11;103228.38;;;7.15;38.21
71384;BME280;67558;52.166;5.004;2023-02-28T12:38:45;103241.59;;;7.24;37.56
71384;BME280;67558;52.166;5.004;2023-02-28T12:43:51;103220.66;;;7.35;36.82
71384;BME280;67558;52.166;5.004;2023-02-28T12:46:40;103226.09;;;7.42;37.06
71384;BME280;67558;52.166;5.004;2023-02-28T12:49:39;103209.09;;;7.43;37.31
71384;BME280;67558;52.166;5.004;2023-02-28T12:52:03;103223.13;;;7.52;37.70
71384;BME280;67558;52.166;5.004;2023-02-28T12:57:36;103212.31;;;7.38;36.87
71384;BME280;67558;52.166;5.004;2023-02-28T13:00:14;103216.81;;;7.38;37.34
71384;BME280;67558;52.166;5.004;2023-02-28T13:03:01;103224.25;;;7.43;36.84
71384;BME280;67558;52.166;5.004;2023-02-28T13:10:57;103208.44;;;7.41;36.86
71384;BME280;67558;52.166;5.004;2023-02-28T13:13:25;103211.94;;;7.42;36.47
71384;BME280;67558;52.166;5.004;2023-02-28T13:20:58;103190.56;;;7.35;35.99
71384;BME280;67558;52.166;5.004;2023-02-28T13:34:32;103192.56;;;7.48;34.79
71384;BME280;67558;52.166;5.004;2023-02-28T13:40:06;103192.06;;;7.59;34.72
71384;BME280;67558;52.166;5.004;2023-02-28T13:42:36;103188.41;;;7.60;35.25
71384;BME280;67558;52.166;5.004;2023-02-28T13:52:48;103193.75;;;7.60;35.63
71384;BME280;67558;52.166;5.004;2023-02-28T13:55:29;103171.97;;;7.56;35.70
71384;BME280;67558;52.166;5.004;2023-02-28T14:03:15;103167.00;;;7.68;35.97
71384;BME280;67558;52.166;5.004;2023-02-28T14:05:44;103167.81;;;7.69;36.02
71384;BME280;67558;52.166;5.004;2023-02-28T14:10:51;103168.28;;;7.72;35.78
71384;BME280;67558;52.166;5.004;2023-02-28T14:13:43;103169.09;;;7.73;35.59
71384;BME280;67558;52.166;5.004;2023-02-28T14:16:10;103157.34;;;7.67;35.21
71384;BME280;67558;52.166;5.004;2023-02-28T14:18:40;103119.38;;;7.44;35.56
71384;BME280;67558;52.166;5.004;2023-02-28T14:21:26;103155.94;;;7.71;35.30
71384;BME280;67558;52.166;5.004;2023-02-28T14:29:57;103154.16;;;7.78;35.32
71384;BME280;67558;52.166;5.004;2023-02-28T14:38:23;103154.94;;;7.72;35.36
71384;BME280;67558;52.166;5.004;2023-02-28T14:40:51;103155.13;;;7.71;35.24
71384;BME280;67558;52.166;5.004;2023-02-28T14:43:25;103154.50;;;7.69;34.24
71384;BME280;67558;52.166;5.004;2023-02-28T14:45:54;103160.19;;;7.66;34.44
71384;BME280;67558;52.166;5.004;2023-02-28T14:48:21;103155.31;;;7.69;34.51
71384;BME280;67558;52.166;5.004;2023-02-28T14:50:58;103157.09;;;7.62;34.41
71384;BME280;67558;52.166;5.004;2023-02-28T14:53:29;103151.81;;;7.69;34.40
71384;BME280;67558;52.166;5.004;2023-02-28T14:55:55;103149.16;;;7.69;34.19
71384;BME280;67558;52.166;5.004;2023-02-28T14:58:27;103140.16;;;7.70;34.48
71384;BME280;67558;52.166;5.004;2023-02-28T15:00:55;103145.88;;;7.67;34.47
71384;BME280;67558;52.166;5.004;2023-02-28T15:03:41;103154.44;;;7.62;34.75
71384;BME280;67558;52.166;5.004;2023-02-28T15:06:15;103146.25;;;7.64;34.79
71384;BME280;67558;52.166;5.004;2023-02-28T15:08:41;103132.75;;;7.50;34.87
71384;BME280;67558;52.166;5.004;2023-02-28T15:11:18;103153.59;;;7.62;34.64
71384;BME280;67558;52.166;5.004;2023-02-28T15:13:54;103151.94;;;7.61;35.28
71384;BME280;67558;52.166;5.004;2023-02-28T15:18:59;103154.72;;;7.52;34.88